Time;durP1;ratioP1;P1;durP2;ratioP2;P2;SDS_P1;SDS_P2;PMS_P1;PMS_P2;Temp;Humidity;BMP_temperature;BMP_pressure;BME280_temperature;BME280_humidity;BME280_pressure;Samples;Min_cycle;Max_cycle;Signal;HPM_P1;HPM_P2
2023/02/10 00:02:18;;;;;;;87.57;38.33;;;;;;;-7.28;58.06;102730.92;124894;1102;110892;-83
2023/02/10 00:04:50;;;;;;;86.30;39.10;;;;;;;-7.30;58.50;102744.20;124981;1102;104137;-78
2023/02/10 00:07:25;;;;;;;91.10;38.97;;;;;;;-7.37;58.14;102737.27;124852;1102;101787;-84
2023/02/10 00:09:57;;;;;;;82.37;36.77;;;;;;;-7.42;57.38;102738.25;124822;1102;104062;-82
2023/02/10 00:12:30;;;;;;;81.50;37.80;;;;;;;-7.50;57.40;102736.25;124917;1102;103993;-84
2023/02/10 00:15:02;;;;;;;88.50;39.77;;;;;;;-7.54;58.66;102734.89;124880;1102;101599;-83
2023/02/10 00:17:34;;;;;;;85.47;37.93;;;;;;;-7.53;58.56;102730.70;124869;1102;103961;-81
2023/02/10 00:20:07;;;;;;;89.37;40.57;;;;;;;-7.53;58.99;102725.61;124941;1102;104040;-82
2023/02/10 00:22:40;;;;;;;89.60;39.50;;;;;;;-7.49;57.55;102722.80;124924;1102;101957;-83
2023/02/10 00:25:12;;;;;;;88.83;39.70;;;;;;;-7.47;59.04;102723.94;124970;1102;103958;-84
2023/02/10 00:27:44;;;;;;;83.10;37.60;;;;;;;-7.52;58.35;102720.72;124946;1102;104110;-82
2023/02/10 00:30:17;;;;;;;84.30;36.97;;;;;;;-7.59;59.24;102726.59;124925;1102;102082;-82
2023/02/10 00:32:49;;;;;;;86.10;36.47;;;;;;;-7.67;57.63;102726.17;124989;1102;101942;-82
2023/02/10 00:35:25;;;;;;;80.93;35.10;;;;;;;-7.79;58.51;102710.98;124889;1102;102029;-83
2023/02/10 00:37:57;;;;;;;78.87;35.73;;;;;;;-7.85;58.03;102714.24;124943;1102;101651;-84
2023/02/10 00:40:30;;;;;;;80.57;35.90;;;;;;;-7.94;58.81;102721.51;124985;1102;101598;-83
2023/02/10 00:43:02;;;;;;;88.17;39.83;;;;;;;-8.03;58.40;102712.53;124843;1102;101689;-82
2023/02/10 00:45:34;;;;;;;75.70;35.97;;;;;;;-8.09;58.03;102710.00;124798;1102;104069;-83
2023/02/10 00:48:07;;;;;;;85.27;36.47;;;;;;;-8.14;57.96;102699.15;124833;1102;104016;-81
2023/02/10 00:50:39;;;;;;;77.53;34.37;;;;;;;-8.15;59.14;102706.56;124835;1102;104089;-84
2023/02/10 00:53:12;;;;;;;86.23;35.73;;;;;;;-8.16;58.75;102707.29;124816;1102;112135;-83
2023/02/10 00:55:44;;;;;;;87.05;36.15;;;;;;;-8.16;57.89;102695.47;124877;1102;101626;-83
2023/02/10 00:58:16;;;;;;;81.23;35.87;;;;;;;-8.20;58.74;102689.70;124870;1102;104009;-84
2023/02/10 01:00:49;;;;;;;77.03;36.33;;;;;;;-8.23;59.21;102687.63;124870;1102;104003;-82
2023/02/10 01:03:21;;;;;;;76.07;34.60;;;;;;;-8.24;58.70;102680.70;125029;1102;103980;-82
2023/02/10 01:05:54;;;;;;;80.33;37.00;;;;;;;-8.24;59.41;102677.21;124933;1102;102506;-81
2023/02/10 01:08:26;;;;;;;71.67;32.97;;;;;;;-8.23;58.63;102684.16;124937;1102;102695;-83
2023/02/10 01:11:04;;;;;;;84.87;37.23;;;;;;;-8.28;59.25;102680.03;124815;1102;103986;-81
2023/02/10 01:13:38;;;;;;;84.00;37.40;;;;;;;-8.34;58.68;102674.96;124935;1102;108403;-82
2023/02/10 01:16:13;;;;;;;81.08;36.98;;;;;;;-8.33;58.75;102667.55;124993;1102;101624;-82
2023/02/10 01:18:46;;;;;;;84.40;36.17;;;;;;;-8.27;59.63;102666.58;124968;1102;101991;-83
2023/02/10 01:21:20;;;;;;;80.90;36.37;;;;;;;-8.24;58.15;102667.97;125007;1102;101657;-83
2023/02/10 01:23:52;;;;;;;86.17;38.80;;;;;;;-8.17;59.17;102672.31;124894;1102;118646;-83
2023/02/10 01:26:25;;;;;;;78.47;35.37;;;;;;;-8.17;59.99;102669.77;124803;1102;102098;-84
2023/02/10 01:28:57;;;;;;;90.10;39.80;;;;;;;-8.17;59.38;102659.58;124952;1102;104077;-84
2023/02/10 01:31:29;;;;;;;87.93;39.23;;;;;;;-8.17;58.95;102665.59;124937;1102;101885;-83
2023/02/10 01:34:02;;;;;;;79.70;35.33;;;;;;;-8.21;58.66;102657.28;125004;1102;104126;-84
2023/02/10 01:36:34;;;;;;;75.23;33.63;;;;;;;-8.22;59.04;102660.55;124937;1102;104191;-84
2023/02/10 01:39:08;;;;;;;82.00;35.97;;;;;;;-8.26;58.82;102661.70;124972;1102;101670;-82
2023/02/10 01:41:40;;;;;;;77.97;35.37;;;;;;;-8.28;60.04;102662.20;124883;1102;101871;-82
2023/02/10 01:44:43;;;;;;;73.87;34.03;;;;;;;-8.34;59.13;102668.23;124920;1102;101888;-83
2023/02/10 01:47:16;;;;;;;71.23;32.17;;;;;;;-8.41;59.58;102660.42;124991;1102;103967;-82
2023/02/10 01:49:51;;;;;;;78.63;34.83;;;;;;;-8.49;59.85;102658.44;124802;1102;101782;-82
2023/02/10 01:52:29;;;;;;;75.87;33.70;;;;;;;-8.52;58.97;102658.90;124989;1102;104038;-83
2023/02/10 01:55:04;;;;;;;74.83;33.07;;;;;;;-8.57;60.03;102656.38;124933;1102;104041;-83
2023/02/10 01:57:38;;;;;;;86.47;36.27;;;;;;;-8.60;60.04;102655.92;124901;1102;103967;-80
2023/02/10 02:00:14;;;;;;;85.93;37.40;;;;;;;-8.57;58.80;102654.77;125048;1102;101871;-83
2023/02/10 02:02:47;;;;;;;72.83;30.97;;;;;;;-8.55;59.22;102658.45;125047;1102;104293;-80
2023/02/10 02:05:30;;;;;;;73.83;33.02;;;;;;;-8.59;59.49;102661.23;124873;1102;103964;-83
2023/02/10 02:08:06;;;;;;;69.87;30.87;;;;;;;-8.66;59.31;102655.97;124983;1102;101621;-83
2023/02/10 02:10:50;;;;;;;73.30;33.70;;;;;;;-8.69;60.47;102643.70;124910;1102;101833;-82
2023/02/10 02:13:30;;;;;;;76.30;33.83;;;;;;;-8.69;59.35;102642.80;125029;1102;103980;-81
2023/02/10 02:16:11;;;;;;;83.80;35.97;;;;;;;-8.64;58.93;102638.38;124975;1101;102560;-83
2023/02/10 02:18:48;;;;;;;79.57;34.50;;;;;;;-8.60;59.83;102639.05;125018;1102;101945;-82
2023/02/10 02:22:11;;;;;;;73.77;31.60;;;;;;;-8.58;60.27;102641.81;124948;1102;102095;-82
2023/02/10 02:25:10;;;;;;;76.03;34.63;;;;;;;-8.64;59.26;102639.29;124845;1105;104094;-83
2023/02/10 02:28:02;;;;;;;78.80;33.53;;;;;;;-8.69;59.07;102642.80;124851;1105;104127;-82
2023/02/10 02:30:57;;;;;;;83.57;34.77;;;;;;;-8.71;59.67;102642.57;124974;1102;104022;-84
2023/02/10 02:33:32;;;;;;;81.13;34.60;;;;;;;-8.65;59.63;102639.06;125081;1101;102112;-81
2023/02/10 02:36:12;;;;;;;85.80;34.43;;;;;;;-8.62;59.66;102650.61;125274;1102;103954;-83
2023/02/10 02:38:45;;;;;;;76.67;34.07;;;;;;;-8.69;59.83;102646.25;125096;1102;103614;-83
2023/02/10 02:41:24;;;;;;;83.80;35.67;;;;;;;-8.77;60.18;102645.81;125112;1102;103888;-83
2023/02/10 02:43:59;;;;;;;83.47;34.87;;;;;;;-8.86;59.55;102642.87;125112;1102;103977;-82
2023/02/10 02:46:44;;;;;;;89.17;35.33;;;;;;;-8.91;59.64;102643.79;125037;1101;101630;-84
2023/02/10 02:49:26;;;;;;;82.87;35.77;;;;;;;-8.94;59.49;102639.20;125044;1102;103971;-83
2023/02/10 02:52:12;;;;;;;84.07;38.03;;;;;;;-8.94;59.04;102635.70;125164;1102;102034;-83
2023/02/10 02:54:50;;;;;;;84.73;35.63;;;;;;;-8.95;59.52;102631.34;125252;1102;103910;-84
2023/02/10 02:57:30;;;;;;;88.37;36.80;;;;;;;-8.96;59.17;102629.48;125176;1102;104016;-82
2023/02/10 03:00:07;;;;;;;85.87;38.30;;;;;;;-8.97;59.44;102630.20;125114;1102;102467;-83
2023/02/10 03:02:42;;;;;;;77.90;34.97;;;;;;;-8.98;59.56;102633.43;125278;1102;102026;-80
2023/02/10 03:05:22;;;;;;;86.13;35.07;;;;;;;-9.06;60.68;102628.12;125235;1102;101715;-82
2023/02/10 03:07:54;;;;;;;79.27;33.50;;;;;;;-9.14;59.66;102637.89;125209;1102;101557;-80
2023/02/10 03:10:26;;;;;;;77.63;33.87;;;;;;;-9.24;61.04;102627.95;125137;1102;101984;-83
2023/02/10 03:12:58;;;;;;;75.67;35.60;;;;;;;-9.30;60.18;102625.45;125180;1102;103955;-82
2023/02/10 03:15:31;;;;;;;81.07;36.90;;;;;;;-9.33;60.60;102635.16;125244;1101;103971;-82
2023/02/10 03:18:03;;;;;;;80.17;36.33;;;;;;;-9.38;60.48;102635.16;125196;1101;103979;-83
2023/02/10 03:20:35;;;;;;;86.70;36.03;;;;;;;-9.43;60.06;102639.56;125226;1102;103958;-77
2023/02/10 03:23:08;;;;;;;81.13;35.13;;;;;;;-9.50;59.77;102637.73;125225;1102;103974;-83
2023/02/10 03:25:40;;;;;;;79.47;34.13;;;;;;;-9.54;59.80;102635.42;125151;1102;104015;-83
2023/02/10 03:28:12;;;;;;;77.73;32.77;;;;;;;-9.56;60.50;102638.45;125202;1102;101705;-82
2023/02/10 03:30:47;;;;;;;68.80;30.73;;;;;;;-9.57;60.84;102632.42;125107;1101;104120;-82
2023/02/10 03:33:17;;;;;;;;;;;;;;;-9.57;60.51;102632.42;125240;1102;101818;-81
2023/02/10 03:35:50;;;;;;;73.97;30.63;;;;;;;-9.55;60.26;102630.11;125084;1102;101910;-81
2023/02/10 03:38:22;;;;;;;79.27;33.80;;;;;;;-9.61;59.95;102628.50;125203;1102;104137;-81
2023/02/10 03:40:55;;;;;;;77.10;32.93;;;;;;;-9.63;59.79;102623.88;125182;1102;102912;-84
2023/02/10 03:43:27;;;;;;;76.53;33.77;;;;;;;-9.59;60.78;102626.20;125010;1101;104012;-84
2023/02/10 03:46:02;;;;;;;79.87;34.93;;;;;;;-9.55;60.41;102625.02;125084;1101;103974;-82
2023/02/10 03:48:34;;;;;;;74.60;32.27;;;;;;;-9.51;60.08;102623.17;125217;1102;103987;-84
2023/02/10 03:51:09;;;;;;;81.33;32.97;;;;;;;-9.50;59.92;102625.02;125201;1102;101888;-84
2023/02/10 03:53:41;;;;;;;77.93;31.23;;;;;;;-9.53;60.88;102624.56;125258;1101;104069;-79
2023/02/10 03:56:13;;;;;;;81.77;33.23;;;;;;;-9.56;60.57;102621.56;125215;1102;103999;-81
2023/02/10 03:58:45;;;;;;;77.43;34.33;;;;;;;-9.54;59.93;102617.63;125278;1102;102112;-84
2023/02/10 04:01:18;;;;;;;79.73;32.83;;;;;;;-9.52;61.13;102621.34;125251;1102;104187;-82
2023/02/10 04:03:51;;;;;;;88.23;35.40;;;;;;;-9.53;60.38;102623.66;125273;1102;104433;-82
2023/02/10 04:06:25;;;;;;;76.93;32.57;;;;;;;-9.52;60.95;102611.17;125283;1102;103961;-80
2023/02/10 04:08:55;;;;;;;;;;;;;;;-9.50;61.27;102609.77;125403;1102;101824;-81
2023/02/10 04:11:27;;;;;;;78.23;32.13;;;;;;;-9.49;61.03;102606.55;125430;1101;103977;-80
2023/02/10 04:13:59;;;;;;;83.30;34.37;;;;;;;-9.49;59.89;102605.60;125290;1102;101981;-81
2023/02/10 04:16:33;;;;;;;79.77;33.90;;;;;;;-9.48;60.88;102600.74;125323;1101;101857;-83
2023/02/10 04:19:05;;;;;;;79.62;34.23;;;;;;;-9.44;61.25;102595.43;125256;1102;104523;-80
2023/02/10 04:21:38;;;;;;;76.40;34.03;;;;;;;-9.37;60.49;102591.25;125009;1102;103954;-79
2023/02/10 04:24:10;;;;;;;77.53;33.40;;;;;;;-9.36;61.23;102587.99;125110;1102;101780;-79
2023/02/10 04:26:42;;;;;;;76.40;33.50;;;;;;;-9.35;60.86;102594.94;125162;1102;101816;-82
2023/02/10 04:29:14;;;;;;;80.37;35.17;;;;;;;-9.35;60.54;102594.94;125139;1102;101593;-82
2023/02/10 04:31:46;;;;;;;85.07;36.23;;;;;;;-9.32;61.39;102596.30;125124;1102;101872;-81
2023/02/10 04:34:18;;;;;;;82.03;32.83;;;;;;;-9.31;61.31;102593.08;124971;1102;104049;-82
2023/02/10 04:36:51;;;;;;;81.17;34.40;;;;;;;-9.33;60.43;102594.48;124988;1102;101866;-83
2023/02/10 04:39:23;;;;;;;76.57;34.77;;;;;;;-9.34;61.36;102592.63;125048;1102;101695;-82
2023/02/10 04:41:55;;;;;;;85.63;35.53;;;;;;;-9.34;60.53;102597.70;124974;1102;104072;-81
2023/02/10 04:44:27;;;;;;;73.40;32.33;;;;;;;-9.35;61.45;102605.11;124917;1102;103955;-82
2023/02/10 04:47:00;;;;;;;82.67;33.23;;;;;;;-9.37;61.61;102596.34;125021;1102;104075;-83
2023/02/10 04:49:32;;;;;;;83.83;36.23;;;;;;;-9.37;61.66;102596.34;125137;1102;102230;-79
2023/02/10 04:52:05;;;;;;;84.90;33.83;;;;;;;-9.40;61.27;102605.34;125568;1102;101651;-81
2023/02/10 04:54:37;;;;;;;86.60;33.97;;;;;;;-9.42;60.92;102596.57;125529;1102;101564;-81
2023/02/10 04:57:09;;;;;;;91.87;37.80;;;;;;;-9.42;61.54;102601.66;125536;1102;103993;-77
2023/02/10 04:59:41;;;;;;;83.27;35.40;;;;;;;-9.41;61.58;102606.05;125701;1102;101663;-77
2023/02/10 05:02:13;;;;;;;100.20;37.90;;;;;;;-9.41;60.99;102602.56;125808;1102;101557;-80
2023/02/10 05:04:46;;;;;;;95.83;38.50;;;;;;;-9.41;61.25;102597.48;125631;1102;101786;-78
2023/02/10 05:07:18;;;;;;;89.00;40.70;;;;;;;-9.43;60.99;102607.42;125171;1102;103874;-80
2023/02/10 05:09:50;;;;;;;105.17;42.53;;;;;;;-9.41;61.59;102603.52;124559;1102;101838;-82
2023/02/10 05:12:22;;;;;;;92.37;43.67;;;;;;;-9.42;61.87;102601.66;124704;1102;104050;-82
2023/02/10 05:14:54;;;;;;;109.50;48.33;;;;;;;-9.40;61.41;102599.34;124714;1102;104079;-82
2023/02/10 05:17:27;;;;;;;111.57;45.13;;;;;;;-9.41;61.44;102600.97;124712;1102;104114;-81
2023/02/10 05:19:59;;;;;;;114.07;47.40;;;;;;;-9.43;61.27;102611.59;124579;1102;104009;-79
2023/02/10 05:22:31;;;;;;;95.73;43.43;;;;;;;-9.41;60.99;102607.65;124772;1102;101878;-82
2023/02/10 05:25:03;;;;;;;111.17;44.87;;;;;;;-9.46;62.08;102611.14;124647;1101;104584;-81
2023/02/10 05:27:36;;;;;;;120.30;49.90;;;;;;;-9.47;61.88;102605.14;124695;1102;103974;-82
2023/02/10 05:30:12;;;;;;;101.60;43.93;;;;;;;-9.48;62.12;102602.38;124612;1102;103207;-80
2023/02/10 05:32:45;;;;;;;103.10;43.57;;;;;;;-9.51;62.16;102613.00;125532;1102;104002;-82
2023/02/10 05:35:17;;;;;;;100.40;46.57;;;;;;;-9.53;62.12;102614.40;124743;1102;101933;-82
2023/02/10 05:37:49;;;;;;;101.27;45.17;;;;;;;-9.54;62.46;102611.62;124692;1102;101653;-80
2023/02/10 05:40:23;;;;;;;103.53;44.33;;;;;;;-9.55;62.59;102614.85;124654;1102;102094;-79
2023/02/10 05:42:55;;;;;;;117.33;47.88;;;;;;;-9.52;62.41;102611.17;124783;1102;101790;-80
2023/02/10 05:45:28;;;;;;;123.17;51.77;;;;;;;-9.45;61.58;102608.83;124730;1102;104067;-81
2023/02/10 05:48:00;;;;;;;116.73;49.30;;;;;;;-9.36;62.33;102618.50;124780;1102;103970;-82
2023/02/10 05:50:32;;;;;;;124.70;53.00;;;;;;;-9.29;62.90;102619.64;124827;1102;103955;-79
2023/02/10 05:53:05;;;;;;;152.27;61.37;;;;;;;-9.23;61.35;102610.38;124815;1102;104114;-80
2023/02/10 05:55:37;;;;;;;130.70;54.90;;;;;;;-9.14;61.52;102613.37;124760;1102;104044;-81
2023/02/10 05:58:12;;;;;;;122.33;53.47;;;;;;;-9.11;61.48;102613.81;124570;1102;101711;-76
2023/02/10 06:00:44;;;;;;;133.97;58.73;;;;;;;-9.02;62.38;102619.34;124775;1102;102515;-77
2023/02/10 06:03:17;;;;;;;140.23;61.17;;;;;;;-8.93;62.65;102618.12;124825;1102;104048;-80
2023/02/10 06:05:49;;;;;;;129.43;58.57;;;;;;;-8.84;62.59;102615.10;124925;1102;103945;-79
2023/02/10 06:08:21;;;;;;;129.87;53.93;;;;;;;-8.71;63.31;102614.57;124799;1102;103955;-80
2023/02/10 06:10:54;;;;;;;117.80;50.80;;;;;;;-8.57;63.13;102616.58;124772;1102;103971;-79
2023/02/10 06:13:26;;;;;;;124.80;50.73;;;;;;;-8.44;63.39;102601.45;124796;1102;103974;-77
2023/02/10 06:15:58;;;;;;;122.53;48.87;;;;;;;-8.31;62.40;102609.19;124648;1102;102018;-78
2023/02/10 06:18:31;;;;;;;103.43;47.50;;;;;;;-8.20;62.58;102611.64;124737;1102;101970;-77
2023/02/10 06:21:04;;;;;;;108.20;47.03;;;;;;;-8.08;63.08;102609.95;124629;1102;102464;-75
2023/02/10 06:23:36;;;;;;;102.00;45.40;;;;;;;-8.02;61.73;102597.17;124718;1102;103955;-84
2023/02/10 06:26:08;;;;;;;107.73;48.17;;;;;;;-7.92;62.72;102592.66;124737;1102;104005;-79
2023/02/10 06:28:40;;;;;;;103.40;47.03;;;;;;;-7.75;63.46;102591.61;124780;1102;103935;-75
2023/02/10 06:31:16;;;;;;;95.90;42.83;;;;;;;-7.65;62.06;102593.13;124721;1102;102576;-76
2023/02/10 06:33:48;;;;;;;97.20;45.77;;;;;;;-7.57;62.61;102588.16;124869;1102;102619;-76
2023/02/10 06:36:21;;;;;;;102.37;46.23;;;;;;;-7.44;63.04;102587.55;124784;1102;101826;-76
2023/02/10 06:38:53;;;;;;;110.27;45.17;;;;;;;-7.32;63.34;102579.77;125108;1102;102393;-78
2023/02/10 06:41:26;;;;;;;108.90;47.50;;;;;;;-7.20;63.23;102578.02;124964;1102;101879;-78
2023/02/10 06:43:58;;;;;;;107.37;49.33;;;;;;;-7.08;62.88;102569.52;124983;1102;103909;-77
2023/02/10 06:46:33;;;;;;;115.63;52.17;;;;;;;-6.96;63.36;102575.42;124782;1102;101966;-80
2023/02/10 06:49:05;;;;;;;110.27;51.40;;;;;;;-6.82;63.18;102564.52;124856;1102;101745;-77
2023/02/10 06:51:45;;;;;;;113.87;53.53;;;;;;;-6.71;62.52;102564.39;125124;1102;103954;-76
2023/02/10 06:54:24;;;;;;;126.43;56.93;;;;;;;-6.61;62.56;102564.92;124656;1102;103942;-77
2023/02/10 06:56:56;;;;;;;117.93;52.67;;;;;;;-6.49;62.55;102563.13;125424;1102;101714;-77
2023/02/10 06:59:29;;;;;;;114.30;52.57;;;;;;;-6.41;63.48;102566.73;124739;1102;101843;-77
2023/02/10 07:02:02;;;;;;;128.67;59.70;;;;;;;-6.32;63.48;102565.43;124716;1102;103328;-77
2023/02/10 07:04:34;;;;;;;127.03;59.40;;;;;;;-6.21;63.60;102557.58;124929;1102;102287;-77
2023/02/10 07:07:07;;;;;;;132.05;56.95;;;;;;;-6.10;62.56;102563.23;124666;1102;102425;-75
2023/02/10 07:09:52;;;;;;;142.60;62.43;;;;;;;-6.03;62.54;102560.76;124861;1102;102461;-76
2023/02/10 07:12:25;;;;;;;135.93;62.13;;;;;;;-5.97;63.37;102561.59;124803;1102;102918;-78
2023/02/10 07:14:59;;;;;;;132.47;60.70;;;;;;;-5.92;63.33;102567.28;125085;1102;101944;-76
2023/02/10 07:17:32;;;;;;;130.53;61.17;;;;;;;-5.87;63.21;102564.64;125056;1102;102733;-77
2023/02/10 07:20:05;;;;;;;142.93;65.30;;;;;;;-5.81;62.97;102565.46;124659;1102;101896;-76
2023/02/10 07:22:37;;;;;;;133.60;64.03;;;;;;;-5.74;63.00;102558.61;124592;1102;103987;-77
2023/02/10 07:25:10;;;;;;;148.33;66.67;;;;;;;-5.65;63.53;102552.16;124663;1102;102754;-78
2023/02/10 07:27:43;;;;;;;126.47;56.83;;;;;;;-5.51;63.03;102548.87;124589;1102;103101;-79
2023/02/10 07:30:16;;;;;;;135.73;61.20;;;;;;;-5.38;62.98;102552.31;124789;1102;102451;-76
2023/02/10 07:32:48;;;;;;;112.97;53.30;;;;;;;-5.27;63.04;102544.44;124894;1102;102834;-78
2023/02/10 07:35:22;;;;;;;108.97;48.87;;;;;;;-5.18;63.54;102537.02;124755;1102;102305;-79
2023/02/10 07:37:55;;;;;;;107.10;48.02;;;;;;;-5.08;62.75;102547.77;125026;1102;102773;-79
2023/02/10 07:40:29;;;;;;;107.33;46.87;;;;;;;-4.98;63.10;102544.75;125052;1102;103938;-77
2023/02/10 07:43:05;;;;;;;103.83;46.53;;;;;;;-4.87;62.76;102539.38;125021;1102;103993;-77
2023/02/10 07:45:46;;;;;;;113.63;46.63;;;;;;;-4.70;62.45;102536.44;125427;1102;102939;-82
2023/02/10 07:48:19;;;;;;;106.87;48.03;;;;;;;-4.57;62.84;102525.20;125218;1102;102147;-78
2023/02/10 07:50:53;;;;;;;112.07;48.97;;;;;;;-4.43;62.73;102527.88;125135;1102;102916;-78
2023/02/10 07:53:26;;;;;;;83.60;37.63;;;;;;;-4.25;63.46;102529.31;124959;1102;103118;-81
2023/02/10 07:56:05;;;;;;;106.10;43.53;;;;;;;-4.08;63.58;102526.33;124968;1102;101734;-78
2023/02/10 07:58:40;;;;;;;98.27;42.78;;;;;;;-3.90;63.30;102519.11;124889;1101;102903;-77
2023/02/10 08:01:18;;;;;;;97.97;42.87;;;;;;;-3.76;63.48;102519.19;125065;1102;103326;-79
2023/02/10 08:03:51;;;;;;;101.35;42.93;;;;;;;-3.63;63.12;102507.17;124939;1102;103973;-77
2023/02/10 08:06:29;;;;;;;94.03;39.60;;;;;;;-3.50;62.52;102500.99;124869;1102;103952;-77
2023/02/10 08:09:03;;;;;;;96.20;41.80;;;;;;;-3.36;62.75;102508.74;125016;1102;102051;-78
2023/02/10 08:11:37;;;;;;;102.40;42.93;;;;;;;-3.20;62.38;102501.27;124883;1102;102742;-79
2023/02/10 08:14:11;;;;;;;93.17;41.83;;;;;;;-3.07;63.00;102495.97;124987;1102;103996;-77
2023/02/10 08:16:49;;;;;;;88.40;43.00;;;;;;;-2.94;62.74;102486.47;124917;1102;103100;-79
2023/02/10 08:19:24;;;;;;;89.37;41.30;;;;;;;-2.80;62.58;102482.09;125571;1102;103036;-78
2023/02/10 08:21:58;;;;;;;101.45;40.40;;;;;;;-2.67;62.08;102484.48;124953;1102;101949;-78
2023/02/10 08:24:33;;;;;;;99.25;42.45;;;;;;;-2.59;62.00;102494.02;124953;1101;103996;-78
2023/02/10 08:27:09;;;;;;;93.83;40.80;;;;;;;-2.51;61.99;102497.52;124860;1101;102769;-78
2023/02/10 08:29:45;;;;;;;96.60;40.80;;;;;;;-2.41;62.94;102492.75;124945;1101;102662;-77
2023/02/10 08:32:18;;;;;;;105.83;39.87;;;;;;;-2.28;61.71;102483.16;124767;1102;107530;-79
2023/02/10 08:34:52;;;;;;;89.07;38.67;;;;;;;-2.15;61.29;102488.14;124974;1102;102154;-78
2023/02/10 08:37:25;;;;;;;90.05;41.83;;;;;;;-2.04;61.00;102484.22;124987;1102;103992;-78
2023/02/10 08:39:59;;;;;;;69.67;27.27;;;;;;;-1.88;61.66;102482.73;125054;1102;102785;-78
2023/02/10 08:42:32;;;;;;;65.95;25.25;;;;;;;-1.68;62.64;102485.05;125060;1102;117691;-79
2023/02/10 08:45:05;;;;;;;37.43;15.37;;;;;;;-1.46;62.20;102484.98;124998;1102;104140;-79
2023/02/10 08:47:38;;;;;;;40.28;14.35;;;;;;;-1.26;62.04;102476.97;124964;1102;102642;-78
2023/02/10 08:50:13;;;;;;;34.70;11.93;;;;;;;-1.09;61.92;102477.23;124999;1102;102446;-79
2023/02/10 08:52:46;;;;;;;33.83;10.73;;;;;;;-0.89;60.28;102475.07;125027;1102;103961;-80
2023/02/10 08:55:23;;;;;;;32.60;10.77;;;;;;;-0.70;60.44;102476.42;124832;1102;104006;-83
2023/02/10 08:57:56;;;;;;;27.67;9.57;;;;;;;-0.53;61.28;102474.80;124898;1102;104053;-78
2023/02/10 09:00:33;;;;;;;25.93;9.90;;;;;;;-0.40;61.16;102481.48;125010;1102;104111;-80
2023/02/10 09:03:06;;;;;;;27.67;10.90;;;;;;;-0.27;60.32;102481.18;125045;1102;112055;-79
2023/02/10 09:05:48;;;;;;;30.87;10.90;;;;;;;-0.14;59.98;102468.00;125052;1102;102543;-82
2023/02/10 09:08:21;;;;;;;27.70;10.50;;;;;;;-0.02;60.61;102469.34;125047;1102;103492;-80
2023/02/10 09:10:54;;;;;;;25.50;9.33;;;;;;;0.11;59.93;102469.01;124935;1102;103048;-80
2023/02/10 09:13:29;;;;;;;27.25;10.90;;;;;;;0.27;60.14;102468.09;124847;1102;102709;-79
2023/02/10 09:16:06;;;;;;;33.83;10.73;;;;;;;0.37;59.43;102460.58;124943;1102;104047;-79
2023/02/10 09:18:42;;;;;;;33.43;11.47;;;;;;;0.52;59.54;102461.33;124867;1102;104021;-78
2023/02/10 09:21:18;;;;;;;27.43;11.03;;;;;;;0.64;59.37;102460.05;124880;1101;103945;-77
2023/02/10 09:23:52;;;;;;;26.47;10.00;;;;;;;0.79;59.54;102455.58;124884;1102;107431;-77
2023/02/10 09:26:25;;;;;;;33.03;11.03;;;;;;;0.93;60.01;102453.55;125126;1102;104029;-79
2023/02/10 09:29:00;;;;;;;28.03;9.73;;;;;;;1.02;58.33;102447.67;124817;1102;103974;-79
2023/02/10 09:31:34;;;;;;;26.70;9.97;;;;;;;1.12;58.40;102440.88;124831;1102;101899;-77
2023/02/10 09:34:07;;;;;;;26.13;9.87;;;;;;;1.19;58.38;102435.61;124943;1102;117710;-77
2023/02/10 09:36:40;;;;;;;28.10;9.67;;;;;;;1.30;58.25;102432.46;125020;1102;102654;-78
2023/02/10 09:39:25;;;;;;;24.07;9.53;;;;;;;1.42;58.36;102425.97;125007;1102;102704;-83
2023/02/10 09:42:09;;;;;;;33.28;10.28;;;;;;;1.58;58.98;102422.38;125092;1102;104127;-78
2023/02/10 09:44:50;;;;;;;27.70;10.10;;;;;;;1.70;58.37;102422.70;124820;1102;103578;-79
2023/02/10 09:47:48;;;;;;;25.17;10.20;;;;;;;1.82;57.32;102411.00;125037;1102;102387;-80
2023/02/10 09:50:51;;;;;;;26.35;9.45;;;;;;;1.93;58.36;102399.14;124632;1102;103408;-82
2023/02/10 09:53:27;;;;;;;27.17;10.03;;;;;;;2.06;56.63;102396.14;124963;1102;104006;-78
2023/02/10 09:56:04;;;;;;;26.37;10.63;;;;;;;2.14;57.91;102390.95;125048;1102;102122;-78
2023/02/10 09:58:46;;;;;;;27.60;9.60;;;;;;;2.25;57.90;102394.61;125024;1102;102838;-79
2023/02/10 10:01:26;;;;;;;25.00;9.07;;;;;;;2.36;57.87;102390.48;125220;1102;103308;-78
2023/02/10 10:04:09;;;;;;;24.00;8.83;;;;;;;2.44;57.77;102394.74;125086;1102;102683;-78
2023/02/10 10:06:52;;;;;;;22.17;8.85;;;;;;;2.50;57.20;102387.57;125727;1102;102812;-77
2023/02/10 10:09:33;;;;;;;25.97;8.33;;;;;;;2.60;57.50;102384.23;125000;1102;104104;-79
2023/02/10 10:12:17;;;;;;;25.07;8.17;;;;;;;2.71;56.51;102374.88;125070;1102;102854;-78
2023/02/10 10:14:54;;;;;;;20.13;8.43;;;;;;;2.76;56.71;102375.33;125312;1102;118542;-77
2023/02/10 10:17:52;;;;;;;23.00;9.83;;;;;;;2.83;57.11;102368.29;125075;1102;102160;-78
2023/02/10 10:20:48;;;;;;;22.03;8.43;;;;;;;2.81;56.73;102375.02;125137;1102;103948;-77
2023/02/10 10:23:32;;;;;;;22.53;8.63;;;;;;;2.70;56.37;102375.66;125005;1102;104034;-83
2023/02/10 10:26:09;;;;;;;;;;;;;;;2.74;55.60;102369.09;125108;1102;102067;-78
2023/02/10 10:28:57;;;;;;;29.73;9.20;;;;;;;2.79;55.88;102367.84;125004;1102;104143;-81
2023/02/10 10:31:34;;;;;;;30.43;10.60;;;;;;;2.85;56.13;102361.59;124735;1102;104111;-81
2023/02/10 10:34:15;;;;;;;25.30;9.40;;;;;;;2.87;55.96;102359.16;124963;1102;102884;-79
2023/02/10 10:36:50;;;;;;;29.50;9.93;;;;;;;2.90;55.48;102346.48;124963;1102;102517;-81
2023/02/10 10:39:32;;;;;;;30.63;10.67;;;;;;;2.90;55.61;102345.55;125032;1102;102044;-81
2023/02/10 10:42:19;;;;;;;24.83;9.80;;;;;;;2.94;54.81;102338.20;125068;1102;102490;-78
2023/02/10 10:44:58;;;;;;;35.90;10.07;;;;;;;2.99;55.83;102336.99;125753;1102;102491;-79
2023/02/10 10:47:42;;;;;;;25.63;10.03;;;;;;;3.02;54.47;102334.69;125535;1102;102837;-81
2023/02/10 10:50:19;;;;;;;23.38;9.10;;;;;;;3.06;54.41;102331.59;125811;1102;102458;-79
2023/02/10 10:52:56;;;;;;;26.83;8.73;;;;;;;3.07;54.64;102332.54;125699;1102;102588;-79
2023/02/10 10:55:35;;;;;;;23.47;8.57;;;;;;;3.08;53.35;102328.25;125112;1102;104041;-81
2023/02/10 10:58:44;;;;;;;23.43;8.70;;;;;;;3.10;54.31;102330.23;125656;1102;102353;-80
2023/02/10 11:01:41;;;;;;;20.85;8.75;;;;;;;3.10;52.87;102322.45;125692;1102;103785;-79
2023/02/10 11:04:20;;;;;;;24.97;9.83;;;;;;;2.98;53.37;102322.19;125665;1102;101913;-80
2023/02/10 11:07:01;;;;;;;25.90;10.20;;;;;;;2.91;52.97;102324.05;125210;1102;103917;-80
2023/02/10 11:09:41;;;;;;;21.77;9.03;;;;;;;2.93;54.24;102325.09;125236;1102;102841;-80
2023/02/10 11:12:26;;;;;;;31.67;10.43;;;;;;;2.99;53.48;102321.43;124893;1103;102166;-81
2023/02/10 11:14:58;;;;;;;;;;;;;;;3.02;50.16;102318.20;125048;1102;103985;-80
2023/02/10 11:17:36;;;;;;;26.27;9.50;;;;;;;3.03;52.87;102314.84;124869;1102;103948;-79
2023/02/10 11:20:25;;;;;;;24.90;9.05;;;;;;;3.04;53.00;102314.98;124883;1102;102908;-78
2023/02/10 11:23:03;;;;;;;21.17;8.10;;;;;;;3.03;52.31;102310.56;124983;1102;102887;-79
2023/02/10 11:25:41;;;;;;;20.67;8.07;;;;;;;3.01;52.81;102303.42;124732;1102;104070;-79
2023/02/10 11:28:22;;;;;;;24.70;8.57;;;;;;;3.02;52.94;102297.45;124815;1102;104063;-79
2023/02/10 11:31:00;;;;;;;23.70;9.00;;;;;;;3.05;53.24;102296.08;124921;1101;102457;-80
2023/02/10 11:33:36;;;;;;;24.43;9.97;;;;;;;3.10;53.17;102295.58;125106;1102;103009;-78
2023/02/10 11:36:12;;;;;;;26.57;8.73;;;;;;;3.11;53.00;102297.41;125195;1101;102718;-78